Time;durP1;ratioP1;P1;durP2;ratioP2;P2;SDS_P1;SDS_P2;PMS_P1;PMS_P2;Temp;Humidity;BMP_temperature;BMP_pressure;BME280_temperature;BME280_humidity;BME280_pressure;Samples;Min_cycle;Max_cycle;Signal;HPM_P1;HPM_P2
2022/11/13 00:00:27;;;;;;;;;66.67;54.00;;;;;13.48;74.99;102074.44;4976408;28;45365;-79
2022/11/13 00:02:53;;;;;;;;;67.00;52.00;;;;;13.36;74.92;102047.06;4958585;28;45467;-77
2022/11/13 00:05:18;;;;;;;;;67.50;52.75;;;;;13.47;74.80;102077.19;4976246;28;45557;-78
2022/11/13 00:07:43;;;;;;;;;65.67;53.67;;;;;13.28;74.71;102044.66;4976374;28;45391;-78
2022/11/13 00:10:09;;;;;;;;;72.00;55.00;;;;;13.33;74.86;102045.38;4976413;28;45450;-78
2022/11/13 00:12:34;;;;;;;;;65.33;51.67;;;;;13.41;74.73;102063.97;4976415;28;45448;-77
2022/11/13 00:14:59;;;;;;;;;71.00;54.33;;;;;13.41;74.97;102066.66;4976166;28;45330;-78
2022/11/13 00:17:26;;;;;;;;;67.33;54.00;;;;;13.39;74.73;102065.81;4976331;28;46380;-77
2022/11/13 00:19:53;;;;;;;;;67.00;53.33;;;;;13.21;75.09;102033.22;4976238;28;45465;-78
2022/11/13 00:22:19;;;;;;;;;65.00;52.67;;;;;13.23;74.59;102036.75;4976301;28;45526;-78
2022/11/13 00:24:45;;;;;;;;;65.50;52.50;;;;;13.33;75.14;102060.66;4975878;28;45460;-76
2022/11/13 00:27:10;;;;;;;;;63.50;51.25;;;;;13.32;75.42;102058.91;4977617;28;46442;-78
2022/11/13 00:29:36;;;;;;;;;65.50;50.75;;;;;13.14;75.35;102022.75;4945189;28;45331;-77
2022/11/13 05:30:16;;;;;;;;;48.00;41.75;;;;;11.16;76.10;101861.75;4972084;28;46759;-78
2022/11/13 05:32:41;;;;;;;;;52.00;41.50;;;;;10.92;76.69;101825.81;4937271;28;48615;-79
2022/11/13 05:35:07;;;;;;;;;51.50;43.00;;;;;10.92;76.45;101842.78;4938284;28;45369;-77
2022/11/13 05:37:32;;;;;;;;;55.75;44.25;;;;;10.92;77.01;101858.00;4956101;28;45425;-78
2022/11/13 05:39:58;;;;;;;;;48.25;41.75;;;;;10.66;77.15;101828.38;4955587;28;45529;-78
2022/11/13 05:42:24;;;;;;;;;49.25;42.25;;;;;10.72;77.70;101841.63;4955579;28;46975;-78
2022/11/13 05:44:50;;;;;;;;;51.25;42.50;;;;;10.58;77.68;101826.81;4955593;28;45395;-77
2022/11/13 05:47:15;;;;;;;;;57.00;44.50;;;;;10.64;77.56;101823.06;4955694;28;45531;-77
2022/11/13 05:49:40;;;;;;;;;51.50;43.00;;;;;10.71;77.24;101838.06;4955114;28;45369;-77
2022/11/13 05:52:06;;;;;;;;;49.75;40.00;;;;;10.66;77.88;101836.41;4955550;28;45300;-76
2022/11/13 05:54:31;;;;;;;;;50.75;40.00;;;;;10.63;78.29;101825.81;4955214;28;45205;-77
2022/11/13 05:56:56;;;;;;;;;43.75;39.50;;;;;10.53;78.44;101819.81;4956004;28;45246;-77
2022/11/13 05:59:22;;;;;;;;;51.25;41.00;;;;;10.67;77.79;101835.50;4955374;28;45144;-78
2022/11/13 06:01:47;;;;;;;;;49.50;42.75;;;;;10.65;77.84;101822.13;4955645;28;45316;-78
2022/11/13 06:04:13;;;;;;;;;47.25;40.75;;;;;10.68;78.15;101803.28;4955496;28;47800;-78
2022/11/13 06:06:38;;;;;;;;;52.50;40.75;;;;;10.59;77.77;101784.78;4956278;28;45330;-78
2022/11/13 06:09:05;;;;;;;;;53.50;44.00;;;;;10.70;77.88;101809.50;4961149;28;45279;-77
2022/11/13 06:11:31;;;;;;;;;29.50;26.50;;;;;10.70;77.41;101806.81;4958228;28;46553;-77
2022/11/13 06:13:58;;;;;;;;;52.25;42.75;;;;;10.71;77.41;101808.56;4938995;28;45775;-77
2022/11/13 06:16:29;;;;;;;;;51.50;42.25;;;;;10.70;77.63;101800.56;4960023;28;45329;-77
2022/11/13 06:18:59;;;;;;;;;47.75;36.50;;;;;10.60;77.81;101794.59;4957514;28;45156;-78
2022/11/13 06:21:28;;;;;;;;;50.50;39.25;;;;;10.61;78.31;101790.97;4955264;28;46115;-77
2022/11/13 06:23:57;;;;;;;;;53.00;43.25;;;;;10.18;78.14;101727.88;4955069;28;45264;-77
2022/11/13 06:26:29;;;;;;;;;49.75;42.50;;;;;10.50;78.20;101777.88;4955469;28;45330;-77
2022/11/13 06:28:56;;;;;;;;;44.75;38.75;;;;;10.41;78.17;101750.47;4955129;28;45347;-77
2022/11/13 06:31:27;;;;;;;;;54.50;42.25;;;;;10.49;78.33;101780.59;4965158;28;46302;-78
2022/11/13 06:33:53;;;;;;;;;47.50;40.50;;;;;10.55;78.33;101777.72;4974486;28;45263;-78
2022/11/13 06:36:24;;;;;;;;;50.75;40.25;;;;;10.63;78.33;101784.63;4965401;28;45314;-77
2022/11/13 06:38:50;;;;;;;;;47.00;42.50;;;;;10.68;77.88;101786.31;4955021;28;45561;-77
2022/11/13 06:41:19;;;;;;;;;44.00;38.50;;;;;10.66;77.83;101777.41;4955379;28;45549;-78
2022/11/13 06:43:46;;;;;;;;;52.00;42.50;;;;;10.70;78.06;101781.78;4955988;28;45223;-79
2022/11/13 06:46:21;;;;;;;;;53.25;43.50;;;;;10.69;78.02;101775.53;4970154;28;45482;-76
2022/11/13 06:48:47;;;;;;;;;52.50;44.25;;;;;10.72;77.86;101785.31;4970035;28;46449;-77
2022/11/13 06:51:18;;;;;;;;;47.50;39.75;;;;;10.72;78.04;101777.25;4955745;28;46364;-77
2022/11/13 06:53:44;;;;;;;;;45.25;39.00;;;;;10.70;77.84;101782.66;4962281;28;45662;-78
2022/11/13 06:56:10;;;;;;;;;46.00;41.75;;;;;10.72;78.32;101786.16;4975361;28;45470;-78
2022/11/13 06:58:36;;;;;;;;;50.25;42.50;;;;;10.70;78.26;101774.63;4953334;28;45354;-78
2022/11/13 07:01:09;;;;;;;;;44.00;37.75;;;;;10.65;78.10;101767.63;4968015;28;46043;-78
2022/11/13 07:03:35;;;;;;;;;50.00;37.75;;;;;10.80;78.02;101780.59;4959648;28;45409;-78
2022/11/13 07:06:03;;;;;;;;;45.25;38.75;;;;;10.74;77.69;101765.53;4977710;28;45446;-76
2022/11/13 07:08:29;;;;;;;;;48.50;40.50;;;;;10.77;77.35;101773.50;4977398;28;45410;-81
2022/11/13 07:10:56;;;;;;;;;46.50;41.00;;;;;10.75;77.65;101771.78;4977207;28;45674;-74
2022/11/13 07:13:22;;;;;;;;;48.25;40.00;;;;;10.76;77.51;101773.53;4977408;28;45314;-75
2022/11/13 07:15:48;;;;;;;;;47.25;38.25;;;;;10.62;77.58;101765.94;4977370;28;45222;-76
2022/11/13 07:18:13;;;;;;;;;47.25;40.75;;;;;10.63;77.65;101761.44;4977893;28;45551;-77
2022/11/13 07:20:38;;;;;;;;;47.75;41.75;;;;;10.70;77.57;101782.66;4945427;28;46260;-76
2022/11/13 07:23:04;;;;;;;;;52.25;42.00;;;;;10.67;77.39;101788.09;4957720;28;45213;-76
2022/11/13 07:25:30;;;;;;;;;46.50;38.75;;;;;10.63;77.61;101789.13;4957977;28;45691;-78
2022/11/13 07:27:55;;;;;;;;;58.50;45.00;;;;;10.49;77.77;101778.81;4957514;28;45223;-74
2022/11/13 07:30:21;;;;;;;;;50.00;42.00;;;;;10.51;78.00;101784.13;4955948;28;47822;-74
2022/11/13 07:32:49;;;;;;;;;50.25;42.75;;;;;10.47;77.67;101763.66;4970640;28;45440;-83
2022/11/13 07:35:15;;;;;;;;;57.75;44.75;;;;;10.56;77.86;101772.34;4963796;28;45430;-75
2022/11/13 07:37:41;;;;;;;;;52.50;43.50;;;;;10.64;77.88;101777.47;4977306;28;45608;-74
2022/11/13 07:40:07;;;;;;;;;48.50;38.25;;;;;10.61;77.66;101773.09;4977176;28;46567;-77
2022/11/13 07:42:32;;;;;;;;;46.75;39.50;;;;;10.64;77.49;101780.16;4951677;28;45350;-77
2022/11/13 07:44:58;;;;;;;;;46.25;40.00;;;;;10.65;77.64;101773.84;4972482;28;45377;-77
2022/11/13 07:47:23;;;;;;;;;47.00;43.00;;;;;10.73;77.29;101777.19;4976770;28;45545;-78
2022/11/13 07:49:49;;;;;;;;;48.50;38.25;;;;;10.75;77.17;101769.97;4977624;28;46467;-78
2022/11/13 07:52:14;;;;;;;;;36.75;30.00;;;;;10.71;77.06;101746.88;4978069;28;45259;-78
2022/11/13 07:54:40;;;;;;;;;27.50;27.50;;;;;10.89;76.69;101764.19;4977362;28;45475;-78
2022/11/13 07:57:05;;;;;;;;;23.75;22.00;;;;;10.94;76.45;101764.94;4981837;28;45171;-79
2022/11/13 07:59:30;;;;;;;;;28.50;26.00;;;;;10.96;76.46;101763.09;4982619;28;45248;-78
2022/11/13 08:01:58;;;;;;;;;21.75;18.25;;;;;11.01;76.22;101758.44;4980366;28;45346;-79
2022/11/13 08:04:24;;;;;;;;;22.50;22.50;;;;;11.00;76.10;101752.19;4980968;28;45386;-78
2022/11/13 08:06:49;;;;;;;;;21.00;21.00;;;;;11.14;76.15;101756.28;4977075;28;45531;-79
2022/11/13 08:09:14;;;;;;;;;19.50;19.50;;;;;11.18;75.58;101745.38;4976401;28;45410;-78
2022/11/13 08:11:40;;;;;;;;;23.25;20.50;;;;;11.21;75.71;101758.69;4976831;28;45310;-79
2022/11/13 08:14:06;;;;;;;;;18.50;18.50;;;;;11.12;74.97;101728.59;4975643;28;45328;-79
2022/11/13 08:16:32;;;;;;;;;21.00;18.00;;;;;11.30;75.30;101754.84;4976722;28;45409;-77
2022/11/13 08:18:57;;;;;;;;;20.00;18.00;;;;;11.28;75.24;101735.22;4975990;28;45234;-79
2022/11/13 08:21:23;;;;;;;;;19.75;18.00;;;;;11.39;75.42;101751.84;4976467;28;45260;-78
2022/11/13 08:23:49;;;;;;;;;17.00;16.00;;;;;11.44;74.66;101746.31;4976410;28;45257;-77
2022/11/13 08:26:16;;;;;;;;;23.25;20.50;;;;;11.48;74.96;101748.88;4976681;28;45460;-77
2022/11/13 08:28:42;;;;;;;;;20.00;19.25;;;;;11.50;74.72;101738.94;4957320;28;45457;-78
2022/11/13 08:31:13;;;;;;;;;21.75;20.00;;;;;11.56;74.27;101740.56;4975996;28;45338;-80
2022/11/13 08:33:39;;;;;;;;;18.25;18.25;;;;;11.37;75.03;101697.31;4975737;28;45449;-77
2022/11/13 08:36:04;;;;;;;;;26.00;20.50;;;;;11.65;74.82;101724.97;4976042;28;45204;-75
2022/11/13 08:38:30;;;;;;;;;18.75;18.25;;;;;11.64;74.27;101717.88;4975581;28;45306;-72
2022/11/13 08:41:00;;;;;;;;;18.00;18.00;;;;;11.70;74.06;101720.34;4976204;28;45318;-78
2022/11/13 08:43:26;;;;;;;;;21.75;20.75;;;;;11.73;73.86;101708.63;4975664;28;45319;-73
2022/11/13 08:45:51;;;;;;;;;22.25;20.50;;;;;11.71;72.96;101703.28;4975885;28;45322;-75
2022/11/13 08:48:16;;;;;;;;;22.50;22.00;;;;;11.87;73.42;101718.88;4975530;28;46677;-77
2022/11/13 08:50:42;;;;;;;;;25.25;22.75;;;;;11.73;73.41;101688.00;4976178;28;45362;-78
2022/11/13 08:53:07;;;;;;;;;29.50;23.50;;;;;11.91;73.25;101715.19;4975242;28;45583;-75
2022/11/13 08:55:33;;;;;;;;;20.50;20.00;;;;;11.97;73.26;101718.50;4975924;28;45386;-77
2022/11/13 08:58:00;;;;;;;;;20.50;19.25;;;;;12.01;72.93;101712.06;4958202;28;46363;-75
2022/11/13 09:00:29;;;;;;;;;35.00;32.50;;;;;11.97;72.95;101705.06;4974930;28;45282;-73
2022/11/13 09:02:56;;;;;;;;;21.50;20.00;;;;;11.94;72.38;101691.75;4975423;28;45568;-75
2022/11/13 09:05:22;;;;;;;;;25.75;23.00;;;;;12.10;72.59;101708.16;4965831;28;45582;-77
2022/11/13 09:07:48;;;;;;;;;23.75;20.50;;;;;12.13;72.76;101703.56;4955592;28;46569;-77
2022/11/13 09:10:15;;;;;;;;;21.25;21.25;;;;;11.99;71.94;101665.56;4956921;28;45310;-76
2022/11/13 09:12:40;;;;;;;;;22.00;19.25;;;;;12.17;72.13;101693.56;4954277;28;45464;-76
2022/11/13 09:15:06;;;;;;;;;19.00;19.00;;;;;12.05;72.26;101670.72;4975720;28;45168;-77
2022/11/13 09:17:31;;;;;;;;;23.50;22.00;;;;;12.25;71.61;101691.47;4975109;28;45484;-76
2022/11/13 09:19:57;;;;;;;;;28.00;25.00;;;;;12.36;71.63;101704.50;4975237;28;45409;-76
2022/11/13 09:22:22;;;;;;;;;24.25;21.50;;;;;12.16;71.00;101659.59;4975376;28;45639;-76
2022/11/13 09:24:47;;;;;;;;;25.75;22.00;;;;;12.41;71.53;101700.72;4974602;28;45667;-76
2022/11/13 09:27:13;;;;;;;;;20.25;20.25;;;;;12.39;71.48;101688.28;4974907;28;45526;-78
2022/11/13 09:29:39;;;;;;;;;26.75;23.25;;;;;12.44;70.62;101694.34;4975350;28;45376;-78
2022/11/13 09:32:05;;;;;;;;;23.50;23.50;;;;;12.40;71.14;101700.78;4974710;28;45396;-77
2022/11/13 09:34:32;;;;;;;;;19.50;18.25;;;;;12.36;71.00;101700.00;4974731;28;45391;-76
2022/11/13 09:36:57;;;;;;;;;28.00;25.50;;;;;12.22;71.19;101674.59;4975111;28;45265;-75
2022/11/13 09:39:23;;;;;;;;;26.00;24.00;;;;;12.25;71.44;101678.03;4975329;28;45384;-76
2022/11/13 09:42:14;;;;;;;;;22.00;20.00;;;;;12.33;71.38;101689.41;4974969;28;45326;-76
2022/11/13 09:44:47;;;;;;;;;26.00;25.00;;;;;12.30;71.22;101686.81;4975410;28;45349;-76
2022/11/13 09:47:21;;;;;;;;;29.00;26.00;;;;;12.37;71.27;101690.13;4974607;28;46204;-72
2022/11/13 09:49:53;;;;;;;;;28.75;24.50;;;;;12.39;70.96;101682.91;4975115;28;45409;-75
2022/11/13 09:52:38;;;;;;;;;25.00;25.00;;;;;12.42;71.42;101683.63;4977989;28;45216;-77
2022/11/13 09:55:04;;;;;;;;;23.25;22.75;;;;;12.40;71.53;101666.72;4974449;28;45271;-75
2022/11/13 09:57:32;;;;;;;;;27.75;24.50;;;;;12.51;71.55;101683.28;4979769;28;46016;-74
2022/11/13 10:00:06;;;;;;;;;22.50;22.50;;;;;12.56;71.33;101685.81;4978251;28;45362;-77
2022/11/13 10:02:53;;;;;;;;;21.00;19.75;;;;;12.59;71.41;101680.28;4978959;28;45252;-74
2022/11/13 10:05:31;;;;;;;;;25.50;24.25;;;;;12.67;71.19;101680.00;4979480;28;45450;-76
2022/11/13 10:08:00;;;;;;;;;20.75;20.25;;;;;12.71;70.77;101678.94;4976226;28;46361;-74
2022/11/13 10:10:41;;;;;;;;;24.00;22.25;;;;;12.73;70.91;101671.69;4974749;28;45452;-76
2022/11/13 10:13:13;;;;;;;;;22.25;22.25;;;;;12.73;70.63;101660.94;4974903;28;45422;-78
2022/11/13 10:15:48;;;;;;;;;27.50;24.00;;;;;12.78;70.00;101673.25;4974911;28;45334;-75
2022/11/13 10:18:22;;;;;;;;;23.25;21.00;;;;;12.76;70.64;101650.91;4965596;28;46071;-75
2022/11/13 10:20:48;;;;;;;;;24.50;22.00;;;;;12.90;70.58;101658.44;4955220;28;45419;-76
2022/11/13 10:23:19;;;;;;;;;22.00;22.00;;;;;12.99;70.60;101655.38;4955359;28;45374;-74
2022/11/13 10:25:46;;;;;;;;;20.25;20.25;;;;;13.04;70.21;101647.97;4937919;28;45204;-74
2022/11/13 10:28:22;;;;;;;;;24.50;20.25;;;;;13.21;70.28;101650.84;4954978;28;45454;-75
2022/11/13 10:30:49;;;;;;;;;27.75;27.00;;;;;13.30;69.33;101649.59;4955009;28;45413;-76
2022/11/13 10:33:20;;;;;;;;;29.25;24.50;;;;;13.24;69.39;101615.72;4971811;28;45520;-75
2022/11/13 10:35:54;;;;;;;;;25.00;25.00;;;;;13.31;69.56;101608.25;4974508;28;45531;-76
2022/11/13 10:38:26;;;;;;;;;25.25;24.75;;;;;13.50;68.74;101621.78;4977458;28;46605;-76
2022/11/13 10:41:08;;;;;;;;;26.75;25.00;;;;;13.68;68.77;101639.84;4977836;28;45269;-75
2022/11/13 10:43:35;;;;;;;;;30.50;24.25;;;;;13.74;67.90;101626.09;4978757;28;45457;-75
2022/11/13 10:46:04;;;;;;;;;22.25;22.25;;;;;13.81;67.83;101624.88;4961744;28;45358;-75
2022/11/13 10:48:34;;;;;;;;;26.25;25.00;;;;;14.06;67.18;101631.81;4959679;28;45364;-76
2022/11/13 10:51:04;;;;;;;;;25.50;24.00;;;;;14.48;66.92;101628.97;4977527;28;45417;-75
2022/11/13 10:53:38;;;;;;;;;22.25;21.25;;;;;15.37;63.97;101624.47;4978030;28;45434;-76
2022/11/13 10:56:13;;;;;;;;;25.50;22.25;;;;;16.45;61.25;101598.78;4977592;28;45227;-77
2022/11/13 10:58:38;;;;;;;;;23.75;22.00;;;;;17.67;58.11;101593.34;4977847;28;45414;-77
2022/11/13 11:01:22;;;;;;;;;26.50;25.00;;;;;18.83;54.79;101564.97;4977830;28;45263;-76
2022/11/13 11:03:49;;;;;;;;;25.25;23.25;;;;;20.31;50.79;101589.94;4961124;28;45335;-77
2022/11/13 11:06:14;;;;;;;;;25.50;22.50;;;;;21.47;47.55;101579.31;4977520;28;45236;-75
2022/11/13 11:08:40;;;;;;;;;28.50;24.25;;;;;22.53;45.32;101584.38;4977272;28;46158;-76
2022/11/13 11:14:24;;;;;;;;;20.75;20.50;;;;;24.63;39.86;101571.44;4977419;28;45244;-76
2022/11/13 11:16:52;;;;;;;;;25.50;23.25;;;;;25.39;38.09;101544.22;4977500;28;45376;-76
2022/11/13 11:19:21;;;;;;;;;25.75;23.00;;;;;26.03;36.78;101532.53;4976759;28;47112;-75
2022/11/13 11:21:52;;;;;;;;;26.75;26.75;;;;;26.74;36.10;101550.94;4977320;28;45488;-75
2022/11/13 11:24:28;;;;;;;;;25.50;25.50;;;;;27.35;34.84;101547.44;4953787;28;45617;-75
2022/11/13 11:27:11;;;;;;;;;24.00;24.00;;;;;27.77;34.02;101522.78;4954062;28;45463;-76
2022/11/13 11:30:22;;;;;;;;;24.00;22.75;;;;;28.18;32.67;101539.56;4977144;28;46114;-76
2022/11/13 11:33:09;;;;;;;;;20.00;20.00;;;;;28.59;32.00;101546.09;4972652;28;45425;-76
2022/11/13 11:35:53;;;;;;;;;10.75;10.50;;;;;28.80;31.59;101527.22;4977316;28;45496;-76
2022/11/13 11:38:43;;;;;;;;;25.50;23.25;;;;;28.98;30.88;101511.38;4976967;28;45372;-77
2022/11/13 11:41:14;;;;;;;;;26.00;21.50;;;;;29.26;31.38;101519.31;4976968;28;46456;-76
2022/11/13 11:44:07;;;;;;;;;25.25;22.75;;;;;29.25;30.92;101514.84;4976661;28;45520;-76
2022/11/13 11:46:34;;;;;;;;;28.50;22.25;;;;;28.96;30.69;101507.06;4976870;28;45364;-76
2022/11/13 11:49:00;;;;;;;;;22.50;22.00;;;;;28.80;31.12;101513.41;4976569;28;45493;-76
2022/11/13 11:51:34;;;;;;;;;20.75;19.75;;;;;28.51;31.61;101518.47;4976832;28;45373;-74
2022/11/13 11:54:14;;;;;;;;;21.75;19.50;;;;;27.58;32.96;101520.25;4958970;28;45376;-76
2022/11/13 11:56:51;;;;;;;;;23.25;22.25;;;;;26.42;34.23;101480.97;4976848;28;45155;-76
2022/11/13 11:59:43;;;;;;;;;20.75;20.75;;;;;25.51;35.73;101508.22;4979363;28;45358;-78
2022/11/13 12:02:23;;;;;;;;;20.00;18.25;;;;;24.32;37.47;101495.78;4979798;28;45219;-76
2022/11/13 12:04:59;;;;;;;;;22.50;18.50;;;;;23.61;39.03;101503.97;4980034;28;45354;-73
2022/11/13 12:07:57;;;;;;;;;21.00;21.00;;;;;22.63;40.57;101497.00;4980668;28;45396;-75
2022/11/13 12:10:49;;;;;;;;;22.50;21.50;;;;;21.77;42.40;101492.28;4977936;28;45219;-81
2022/11/13 12:13:27;;;;;;;;;22.25;22.25;;;;;21.23;43.89;101491.22;4976630;28;45392;-76
2022/11/13 12:16:26;;;;;;;;;26.75;25.00;;;;;20.75;44.76;101491.31;4976642;28;45200;-74
2022/11/13 12:18:59;;;;;;;;;24.00;24.00;;;;;20.14;46.20;101481.41;4976270;28;45406;-75
2022/11/13 12:21:30;;;;;;;;;28.25;26.75;;;;;19.82;47.24;101492.78;4976419;28;45382;-76
2022/11/13 12:24:05;;;;;;;;;26.00;25.25;;;;;19.50;48.10;101495.09;4957730;28;47250;-74
2022/11/13 12:26:46;;;;;;;;;24.00;23.75;;;;;19.13;48.98;101493.22;4976435;28;45378;-74
2022/11/13 12:29:23;;;;;;;;;23.00;23.00;;;;;18.89;49.72;101493.03;4976386;28;45516;-81
2022/11/13 12:32:44;;;;;;;;;23.75;22.50;;;;;18.63;50.46;101483.94;4976037;28;45479;-79
2022/11/13 12:35:16;;;;;;;;;24.50;24.00;;;;;18.44;51.19;101478.00;4947051;28;46261;-76
2022/11/13 12:37:56;;;;;;;;;21.25;21.25;;;;;18.18;51.67;101462.56;4975872;28;45376;-77
2022/11/13 12:40:37;;;;;;;;;26.75;23.50;;;;;18.07;52.04;101472.28;4976410;28;45437;-74
2022/11/13 12:43:21;;;;;;;;;27.75;22.50;;;;;17.91;52.40;101473.41;4975605;28;45448;-75
2022/11/13 12:45:57;;;;;;;;;21.75;20.75;;;;;17.68;53.20;101454.06;4975768;28;45266;-74
2022/11/13 12:48:34;;;;;;;;;24.75;23.75;;;;;17.66;53.16;101461.41;4975308;28;45378;-77
2022/11/13 12:51:02;;;;;;;;;28.25;26.00;;;;;17.48;53.78;101453.53;4958248;28;45487;-75
2022/11/13 12:53:30;;;;;;;;;23.75;22.75;;;;;17.35;53.68;101429.91;4974440;28;46198;-76
2022/11/13 12:55:59;;;;;;;;;24.25;22.75;;;;;17.45;54.35;101457.31;4975387;28;46182;-75
2022/11/13 12:58:30;;;;;;;;;26.00;26.00;;;;;17.31;54.34;101430.22;4975843;28;45322;-79
2022/11/13 13:01:06;;;;;;;;;27.25;27.25;;;;;17.21;54.18;101424.50;4928858;28;45470;-77
2022/11/13 13:03:40;;;;;;;;;28.75;24.00;;;;;17.26;54.47;101444.06;4963259;28;46133;-78
2022/11/13 13:06:19;;;;;;;;;25.50;24.00;;;;;17.11;54.87;101422.44;4964286;28;45480;-76
2022/11/13 13:08:55;;;;;;;;;21.25;21.25;;;;;17.17;55.39;101436.50;4975393;28;45441;-76
2022/11/13 13:11:36;;;;;;;;;25.75;23.75;;;;;17.14;55.51;101441.22;4973500;28;45624;-75
2022/11/13 13:14:25;;;;;;;;;20.75;20.75;;;;;17.14;55.36;101447.53;4972016;28;47136;-78
2022/11/13 13:16:51;;;;;;;;;27.00;24.75;;;;;17.08;55.33;101428.06;4974117;28;45421;-73
2022/11/13 13:19:32;;;;;;;;;24.25;24.25;;;;;17.07;55.77;101426.34;4974762;28;45337;-72
2022/11/13 13:21:57;;;;;;;;;25.75;22.50;;;;;17.10;55.90;101420.72;4975275;28;45347;-73
2022/11/13 13:24:34;;;;;;;;;24.50;23.50;;;;;16.99;55.70;101403.31;4949702;28;46514;-72
2022/11/13 13:27:20;;;;;;;;;25.25;24.25;;;;;16.91;56.26;101383.94;4961739;28;48369;-78
2022/11/13 13:29:46;;;;;;;;;28.00;24.25;;;;;17.09;56.53;101419.84;4966026;28;45628;-75
2022/11/13 13:32:25;;;;;;;;;32.25;28.00;;;;;17.08;56.21;101406.41;4971250;28;45363;-74
2022/11/13 13:35:14;;;;;;;;;30.75;26.00;;;;;17.12;56.78;101407.94;4975333;28;45512;-75
2022/11/13 13:37:51;;;;;;;;;28.25;27.00;;;;;17.12;56.80;101406.09;4975200;28;45522;-77
2022/11/13 13:40:47;;;;;;;;;25.25;22.25;;;;;17.15;56.61;101403.22;4975137;28;45318;-78
2022/11/13 13:43:44;;;;;;;;;27.75;27.00;;;;;17.19;56.68;101393.91;4957714;28;45582;-75
2022/11/13 13:46:14;;;;;;;;;25.25;24.00;;;;;17.22;56.91;101391.00;4975255;28;45385;-76
2022/11/13 13:48:46;;;;;;;;;24.00;24.00;;;;;17.17;56.76;101378.72;4974927;28;46683;-75
2022/11/13 13:51:38;;;;;;;;;24.75;24.75;;;;;17.30;56.99;101394.09;4958599;28;45448;-76
2022/11/13 13:54:06;;;;;;;;;33.50;27.75;;;;;17.69;55.92;101396.13;4975043;28;45416;-77
2022/11/13 13:56:38;;;;;;;;;26.75;25.50;;;;;18.28;54.84;101364.16;4975152;28;45374;-76
2022/11/13 13:59:04;;;;;;;;;21.50;21.50;;;;;19.23;52.90;101375.53;4956759;28;48730;-74
2022/11/13 14:01:32;;;;;;;;;25.00;23.50;;;;;20.00;50.24;101355.34;4967976;28;45428;-75
2022/11/13 14:04:17;;;;;;;;;28.25;25.50;;;;;21.06;48.23;101369.81;4973160;28;45499;-74
2022/11/13 14:07:00;;;;;;;;;25.50;25.50;;;;;21.82;45.81;101352.69;4960622;28;45533;-76
2022/11/13 14:09:27;;;;;;;;;20.25;20.25;;;;;22.41;44.59;101342.19;4955933;28;48707;-75
2022/11/13 14:11:58;;;;;;;;;27.25;24.75;;;;;23.02;43.90;101365.09;4975790;28;45311;-74
2022/11/13 14:14:24;;;;;;;;;25.75;23.75;;;;;23.41;43.18;101365.25;4978656;28;45475;-75
2022/11/13 14:16:51;;;;;;;;;30.25;26.75;;;;;23.73;42.71;101363.25;4978673;28;45578;-76
2022/11/13 14:19:17;;;;;;;;;25.50;24.25;;;;;23.88;41.91;101360.13;4978312;28;46118;-76
2022/11/13 14:21:49;;;;;;;;;29.50;23.75;;;;;24.02;41.03;101356.97;4978947;28;45267;-75
2022/11/13 14:24:19;;;;;;;;;28.75;24.25;;;;;23.97;41.89;101354.66;4978500;28;45641;-76
2022/11/13 14:26:45;;;;;;;;;27.50;25.50;;;;;23.98;40.92;101350.06;4978562;28;45610;-74
2022/11/13 14:29:43;;;;;;;;;28.00;25.75;;;;;23.96;41.93;101354.81;4960268;28;45936;-75
2022/11/13 14:32:15;;;;;;;;;23.75;23.75;;;;;23.89;41.87;101354.50;4977778;28;45392;-77
2022/11/13 14:34:45;;;;;;;;;26.50;24.50;;;;;23.77;41.33;101356.50;4978354;28;45410;-74
2022/11/13 14:37:25;;;;;;;;;26.50;24.00;;;;;23.63;42.05;101365.09;4977599;28;45534;-75
2022/11/13 14:39:51;;;;;;;;;24.00;22.25;;;;;23.43;42.44;101348.72;4977777;28;46615;-72
2022/11/13 14:42:21;;;;;;;;;23.50;23.50;;;;;23.30;44.14;101344.38;4977652;28;45351;-74
2022/11/13 14:44:47;;;;;;;;;27.50;27.50;;;;;23.20;42.47;101328.91;4957128;28;45561;-78
2022/11/13 14:47:25;;;;;;;;;27.25;26.00;;;;;23.20;42.73;101348.06;4977310;28;46188;-74
2022/11/13 14:49:50;;;;;;;;;24.50;23.00;;;;;23.11;43.16;101343.41;4977890;28;45414;-75
2022/11/13 14:52:22;;;;;;;;;24.25;24.25;;;;;22.95;42.54;101339.28;4978028;28;45356;-73
2022/11/13 14:54:58;;;;;;;;;27.25;23.50;;;;;22.62;43.85;101321.22;4974169;28;45337;-79
2022/11/13 14:57:24;;;;;;;;;27.00;25.75;;;;;22.54;43.78;101336.56;4977467;28;45341;-79
2022/11/13 14:59:49;;;;;;;;;26.00;24.25;;;;;22.26;44.77;101329.84;4959784;28;47281;-76
2022/11/13 15:02:14;;;;;;;;;22.00;21.50;;;;;21.94;45.56;101326.25;4977412;28;45521;-75
2022/11/13 15:04:40;;;;;;;;;24.75;24.00;;;;;21.61;46.12;101311.66;4977511;28;45253;-77
2022/11/13 15:07:29;;;;;;;;;25.50;22.25;;;;;21.45;46.42;101327.56;4977235;28;45419;-76
2022/11/13 15:09:56;;;;;;;;;22.75;21.00;;;;;21.31;46.69;101316.94;4977512;28;46542;-76
2022/11/13 15:12:21;;;;;;;;;24.75;24.75;;;;;21.08;47.51;101308.75;4977273;28;45283;-75
2022/11/13 15:14:47;;;;;;;;;26.75;25.50;;;;;20.74;47.86;101282.47;4977043;28;45326;-75
2022/11/13 15:17:17;;;;;;;;;24.25;24.25;;;;;20.52;48.62;101298.75;4977427;28;45313;-76
2022/11/13 15:19:47;;;;;;;;;29.00;25.25;;;;;20.27;49.16;101297.91;4977626;28;45373;-74
2022/11/13 15:22:13;;;;;;;;;24.50;24.25;;;;;20.06;49.90;101307.75;4959244;28;45261;-75
2022/11/13 15:24:39;;;;;;;;;28.25;25.25;;;;;19.85;50.41;101296.63;4976993;28;45488;-78
2022/11/13 15:27:06;;;;;;;;;28.25;25.50;;;;;19.67;51.14;101302.59;4977332;28;45492;-75
2022/11/13 15:29:32;;;;;;;;;28.25;28.25;;;;;19.44;51.47;101305.16;4977197;28;46298;-75
2022/11/13 15:31:57;;;;;;;;;27.75;27.25;;;;;19.19;51.59;101300.66;4957254;28;45607;-74
2022/11/13 15:34:23;;;;;;;;;28.00;28.00;;;;;18.98;53.06;101293.16;4958813;28;45492;-75
2022/11/13 15:36:48;;;;;;;;;25.75;25.75;;;;;18.82;53.45;101296.13;4976963;28;45428;-77
2022/11/13 15:39:15;;;;;;;;;28.50;28.50;;;;;18.65;53.85;101296.44;4976681;28;46194;-72
2022/11/13 15:41:40;;;;;;;;;30.75;28.00;;;;;18.36;54.56;101261.34;4975295;28;45454;-77
2022/11/13 15:44:12;;;;;;;;;28.75;27.00;;;;;18.36;54.56;101291.19;4965235;28;45551;-74
2022/11/13 15:46:37;;;;;;;;;32.50;29.75;;;;;18.16;55.04;101272.72;4972676;28;45930;-77
2022/11/13 15:49:04;;;;;;;;;34.00;31.50;;;;;18.11;55.60;101283.88;4970519;28;46063;-77
2022/11/13 15:51:40;;;;;;;;;28.75;28.00;;;;;18.00;56.25;101277.44;4972502;28;45472;-77
2022/11/13 15:54:21;;;;;;;;;34.25;31.50;;;;;17.86;56.05;101272.97;4952966;28;46659;-74
2022/11/13 15:56:47;;;;;;;;;27.50;27.50;;;;;17.71;57.16;101264.00;4956644;28;45802;-75
2022/11/13 15:59:13;;;;;;;;;33.00;29.00;;;;;17.63;57.58;101263.66;4976312;28;45788;-75
2022/11/13 16:01:39;;;;;;;;;30.00;27.50;;;;;17.56;57.99;101262.28;4974198;28;45413;-75
2022/11/13 16:04:05;;;;;;;;;29.50;29.50;;;;;17.35;58.12;101242.06;4958771;28;45412;-75
2022/11/13 16:06:34;;;;;;;;;31.75;29.50;;;;;17.41;58.29;101263.31;4975796;28;45559;-76
2022/11/13 16:09:01;;;;;;;;;28.75;26.75;;;;;17.25;58.82;101252.63;4971553;28;46525;-75
2022/11/13 16:11:30;;;;;;;;;30.00;29.00;;;;;17.08;59.15;101231.19;4971928;28;45572;-75
2022/11/13 16:13:55;;;;;;;;;28.00;25.00;;;;;16.99;59.27;101223.66;4953264;28;46697;-77
2022/11/13 16:16:24;;;;;;;;;26.75;25.00;;;;;17.09;59.34;101251.00;4971172;28;45440;-74
2022/11/13 16:18:50;;;;;;;;;26.50;26.50;;;;;17.03;60.12;101252.25;4972381;28;45452;-78
2022/11/13 16:21:17;;;;;;;;;27.75;27.00;;;;;16.94;60.04;101253.72;4978585;28;45318;-75
2022/11/13 16:23:43;;;;;;;;;28.00;27.75;;;;;16.90;60.25;101248.63;4959028;28;45653;-73
2022/11/13 16:26:21;;;;;;;;;29.75;28.75;;;;;16.86;60.54;101256.06;4957351;28;45646;-76